createdAt,value
2022-10-02T00:00:59.131Z,14.8
2022-10-02T00:06:06.225Z,14.8
2022-10-02T00:11:48.821Z,14.8
2022-10-02T00:17:27.185Z,14.8
2022-10-02T00:23:04.002Z,14.8
2022-10-02T00:28:25.880Z,14.8
2022-10-02T00:34:04.431Z,14.8
2022-10-02T00:39:25.778Z,14.8
2022-10-02T00:45:02.114Z,14.8
2022-10-02T00:50:39.339Z,14.8
2022-10-02T00:56:00.022Z,14.8
2022-10-02T01:01:37.071Z,14.8
2022-10-02T01:07:14.545Z,14.8
2022-10-02T01:12:20.866Z,14.8
2022-10-02T01:17:57.717Z,14.7
2022-10-02T01:23:35.478Z,14.6
2022-10-02T01:28:57.557Z,14.6
2022-10-02T01:34:34.091Z,14.4
2022-10-02T01:40:11.250Z,14.4
2022-10-02T01:45:32.253Z,14.3
2022-10-02T01:51:10.483Z,14.2
2022-10-02T01:56:48.227Z,14.1
2022-10-02T02:02:26.034Z,13.9
2022-10-02T02:08:04.310Z,13.8
2022-10-02T02:13:26.070Z,13.7
2022-10-02T02:19:03.507Z,13.6
2022-10-02T02:24:25.027Z,13.5
2022-10-02T02:29:48.430Z,13.4
2022-10-02T02:35:25.120Z,13.4
2022-10-02T02:41:01.349Z,13.3
2022-10-02T02:46:42.136Z,13.2
2022-10-02T02:52:19.126Z,13.2
2022-10-02T02:58:02.483Z,13.1
2022-10-02T03:03:40.948Z,13.1
2022-10-02T03:09:18.297Z,13.1
2022-10-02T03:14:55.070Z,13
2022-10-02T03:20:33.178Z,13
2022-10-02T03:26:10.204Z,13
2022-10-02T03:32:16.394Z,13
2022-10-02T03:37:54.054Z,13.1
2022-10-02T03:44:00.012Z,13
2022-10-02T03:50:02.131Z,13.1
2022-10-02T03:55:26.404Z,13.1
2022-10-02T04:00:47.098Z,13.1
2022-10-02T04:06:09.492Z,13.1
2022-10-02T04:11:20.863Z,13.1
2022-10-02T04:16:27.046Z,13.1
2022-10-02T04:21:32.856Z,13.1
2022-10-02T04:26:39.757Z,13.2
2022-10-02T04:31:46.579Z,13.2
2022-10-02T04:36:36.991Z,13.3
2022-10-02T04:42:04.661Z,13.3
2022-10-02T04:47:42.039Z,13.4
2022-10-02T04:53:18.650Z,13.7
2022-10-02T04:58:56.070Z,14.7
2022-10-02T05:04:20.735Z,16.4
2022-10-02T05:10:02.278Z,17.9
2022-10-02T05:15:39.619Z,17.9
2022-10-02T05:21:01.987Z,17.9
2022-10-02T05:26:43.396Z,17.9
2022-10-02T05:31:49.110Z,18.1
2022-10-02T05:37:00.020Z,18.2
2022-10-02T05:41:50.565Z,18.3
2022-10-02T05:47:00.455Z,18.3
2022-10-02T05:52:06.672Z,18.1
2022-10-02T05:57:29.775Z,18.9
2022-10-02T06:02:55.811Z,19.2
2022-10-02T06:08:02.227Z,19.3
2022-10-02T06:13:08.941Z,23.9
2022-10-02T06:18:49.997Z,30.1
2022-10-02T06:24:16.409Z,35.5
2022-10-02T06:29:58.878Z,40.6
2022-10-02T06:35:05.887Z,41.7
2022-10-02T06:40:43.992Z,33.5
2022-10-02T06:45:49.545Z,39.5
2022-10-02T06:50:56.505Z,44.7
2022-10-02T06:56:06.615Z,41.2
2022-10-02T07:01:13.283Z,41.6
2022-10-02T07:06:36.075Z,42.9
2022-10-02T07:11:58.611Z,44.4
2022-10-02T07:17:38.890Z,46.1
2022-10-02T07:23:24.409Z,45.9
2022-10-02T07:28:51.641Z,46.3
2022-10-02T07:34:20.284Z,46.7
2022-10-02T07:39:58.567Z,47.7
2022-10-02T07:45:36.523Z,48.7
2022-10-02T07:51:17.012Z,49.4
2022-10-02T07:56:57.944Z,50.6
2022-10-02T08:02:35.584Z,51.3
2022-10-02T08:08:19.398Z,52.3
2022-10-02T08:13:56.771Z,51.6
2022-10-02T08:20:01.502Z,50.8
2022-10-02T08:25:22.898Z,52.1
2022-10-02T08:31:06.377Z,48.9
2022-10-02T08:36:49.166Z,49.8
2022-10-02T08:42:10.468Z,54.5
2022-10-02T08:47:48.577Z,55.6
2022-10-02T08:53:26.138Z,56.6
2022-10-02T08:58:51.166Z,57.6
2022-10-02T09:04:17.844Z,58.4
2022-10-02T09:09:14.840Z,59.5
2022-10-02T09:14:21.146Z,60.1
2022-10-02T09:19:48.299Z,60.4
2022-10-02T09:25:11.884Z,60.8
2022-10-02T09:30:19.277Z,60.8
2022-10-02T09:35:56.275Z,61.3
2022-10-02T09:41:33.398Z,62
2022-10-02T09:47:11.225Z,61.4
2022-10-02T09:52:49.024Z,60.3
2022-10-02T09:58:26.452Z,60.9
2022-10-02T10:04:09.674Z,61.5
2022-10-02T10:10:11.165Z,62.4
2022-10-02T10:15:49.386Z,63.2
2022-10-02T10:21:30.062Z,64.1
2022-10-02T10:27:08.390Z,64.8
2022-10-02T10:32:46.686Z,65.4
2022-10-02T10:38:12.844Z,66.1
2022-10-02T10:43:57.052Z,65.6
2022-10-02T10:49:39.898Z,65.3
2022-10-02T10:51:07.462Z,65.3
2022-10-02T10:56:48.739Z,65.3
2022-10-02T11:02:15.991Z,65.9
2022-10-02T11:07:38.022Z,66.3
2022-10-02T11:13:00.100Z,65.9
2022-10-02T11:18:22.435Z,66.3
2022-10-02T11:23:44.951Z,66.8
2022-10-02T11:29:26.697Z,74.4
2022-10-02T11:35:05.357Z,68.4
2022-10-02T11:40:42.652Z,64.3
2022-10-02T11:46:20.032Z,71.1
2022-10-02T11:51:57.173Z,75.4
2022-10-02T11:57:37.279Z,63.3
2022-10-02T12:03:15.332Z,66
2022-10-02T12:08:53.196Z,70.5
2022-10-02T12:14:31.745Z,73.3
2022-10-02T12:20:08.998Z,69.5
2022-10-02T12:25:31.107Z,61.1
2022-10-02T12:31:08.950Z,66.3
2022-10-02T12:36:48.707Z,69.1
2022-10-02T12:42:30.755Z,70.5
2022-10-02T12:47:52.926Z,71.4
2022-10-02T12:53:30.238Z,71.1
2022-10-02T12:59:07.623Z,70.4
2022-10-02T13:05:14.254Z,69.3
2022-10-02T13:10:53.410Z,67.9
2022-10-02T13:16:15.406Z,65.1
2022-10-02T13:21:57.775Z,63.5
2022-10-02T13:27:42.038Z,62.5
2022-10-02T13:33:20.758Z,59.4
2022-10-02T13:38:58.836Z,54.7
2022-10-02T13:44:36.906Z,51.5
2022-10-02T13:50:17.591Z,50.2
2022-10-02T13:55:55.852Z,48.7
2022-10-02T14:01:37.630Z,47
2022-10-02T14:07:15.307Z,47.6
2022-10-02T14:12:53.158Z,47.4
2022-10-02T14:18:34.612Z,45.6
2022-10-02T14:24:11.947Z,43.3
2022-10-02T14:29:49.559Z,41.3
2022-10-02T14:35:28.505Z,39
2022-10-02T14:41:05.424Z,37.8
2022-10-02T14:46:44.492Z,37.3
2022-10-02T14:52:21.691Z,36.4
2022-10-02T14:57:59.430Z,35.3
2022-10-02T15:20:39.648Z,29.9
2022-10-02T15:26:18.027Z,28.8
2022-10-02T15:32:19.812Z,27.6
2022-10-02T15:37:59.542Z,26.7
2022-10-02T15:43:40.729Z,25.6
2022-10-02T15:49:17.969Z,24.6
2022-10-02T15:54:55.546Z,23.6
2022-10-02T16:00:38.568Z,22.6
2022-10-02T16:06:16.463Z,21.7
2022-10-02T16:11:53.464Z,20.8
2022-10-02T16:17:32.752Z,19.8
2022-10-02T16:23:10.471Z,19.1
2022-10-02T16:24:28.212Z,18.9
2022-10-02T16:29:50.589Z,18.3
2022-10-02T16:35:13.697Z,17.7
2022-10-02T16:40:51.694Z,17.2
2022-10-02T16:46:31.114Z,16.8
2022-10-02T16:51:54.583Z,16.4
2022-10-02T16:57:31.540Z,16.1
2022-10-02T17:03:40.923Z,15.7
2022-10-02T17:09:03.770Z,15.3
2022-10-02T17:14:40.758Z,14.9
2022-10-02T17:20:20.398Z,14.6
2022-10-02T17:25:58.725Z,14.3
2022-10-02T17:31:40.502Z,14.2
2022-10-02T17:37:22.733Z,14
2022-10-02T17:43:01.285Z,13.9
2022-10-02T17:48:43.602Z,13.8
2022-10-02T17:54:55.214Z,13.6
2022-10-02T18:00:38.123Z,13.5
2022-10-02T18:05:59.785Z,13.3
2022-10-02T18:11:39.118Z,13.3
2022-10-02T18:17:08.149Z,13.1
2022-10-02T18:22:14.491Z,13
2022-10-02T18:27:36.057Z,12.9
2022-10-02T18:33:24.432Z,12.8
2022-10-02T18:39:00.361Z,12.8
2022-10-02T18:44:38.317Z,12.7
2022-10-02T18:50:04.491Z,12.6
2022-10-02T18:55:41.773Z,12.3
2022-10-02T19:01:09.109Z,12.1
2022-10-02T19:06:48.204Z,11.9
2022-10-02T19:12:25.582Z,11.7
2022-10-02T19:18:06.631Z,11.5
2022-10-02T19:23:45.031Z,11.3
2022-10-02T19:29:07.290Z,11.1
2022-10-02T19:34:44.573Z,10.9
2022-10-02T19:40:11.232Z,10.8
2022-10-02T19:45:56.679Z,10.5
2022-10-02T19:51:34.016Z,10.3
2022-10-02T19:57:01.741Z,10.1
2022-10-02T20:02:40.990Z,9.9
2022-10-02T20:08:06.544Z,9.7
2022-10-02T20:13:31.407Z,9.5
2022-10-02T20:19:09.896Z,9.3
2022-10-02T20:24:46.722Z,9.1
2022-10-02T20:30:24.893Z,9
